Time;durP1;ratioP1;P1;durP2;ratioP2;P2;SDS_P1;SDS_P2;PMS_P1;PMS_P2;Temp;Humidity;BMP_temperature;BMP_pressure;BME280_temperature;BME280_humidity;BME280_pressure;Samples;Min_cycle;Max_cycle;Signal;HPM_P1;HPM_P2
2023/04/28 00:00:46;;;;;;;20.45;18.30;;;7.50;99.90;;;;;;5043102;28;20048;-75
2023/04/28 00:03:15;;;;;;;18.70;16.90;;;7.40;99.90;;;;;;5048731;28;20087;-75
2023/04/28 00:05:40;;;;;;;19.35;17.45;;;7.50;99.90;;;;;;5013534;28;20041;-76
2023/04/28 00:08:06;;;;;;;20.25;18.35;;;7.50;99.90;;;;;;5041934;28;20140;-75
2023/04/28 00:10:32;;;;;;;19.67;17.80;;;7.50;99.90;;;;;;5032616;28;20083;-75
2023/04/28 00:13:02;;;;;;;20.33;18.33;;;7.50;99.90;;;;;;5037295;28;20033;-75
2023/04/28 00:15:28;;;;;;;20.08;18.17;;;7.40;99.90;;;;;;5030389;28;20034;-75
2023/04/28 00:17:54;;;;;;;20.45;18.63;;;7.40;99.90;;;;;;5029976;28;20037;-75
2023/04/28 00:20:20;;;;;;;19.80;18.00;;;7.50;99.90;;;;;;5016381;28;20080;-75
2023/04/28 00:22:45;;;;;;;21.27;19.17;;;7.40;99.90;;;;;;5045889;28;20037;-75
2023/04/28 00:25:11;;;;;;;19.83;18.02;;;7.30;99.90;;;;;;5033516;28;20044;-75
2023/04/28 00:27:37;;;;;;;20.88;18.75;;;7.30;99.90;;;;;;5052383;28;20033;-75
2023/04/28 00:30:03;;;;;;;20.90;18.83;;;7.30;99.90;;;;;;5052740;28;20052;-75
2023/04/28 00:32:28;;;;;;;21.10;19.10;;;7.30;99.90;;;;;;5059657;28;20040;-75
2023/04/28 00:34:55;;;;;;;20.15;18.27;;;7.30;99.90;;;;;;5038048;28;20046;-75
2023/04/28 00:37:26;;;;;;;19.92;18.00;;;7.20;99.90;;;;;;5030250;28;20090;-74
2023/04/28 00:39:55;;;;;;;21.38;19.48;;;7.20;99.90;;;;;;5051834;28;20033;-75
2023/04/28 00:42:23;;;;;;;20.45;18.58;;;7.20;99.90;;;;;;5060741;28;20052;-75
2023/04/28 00:44:49;;;;;;;20.05;18.05;;;7.20;99.90;;;;;;5022052;28;20045;-76
2023/04/28 00:47:16;;;;;;;21.98;19.83;;;7.20;99.90;;;;;;5033329;28;20056;-75
2023/04/28 00:49:42;;;;;;;20.55;18.73;;;7.10;99.90;;;;;;5052807;28;20056;-76
2023/04/28 00:52:11;;;;;;;20.98;18.88;;;7.10;99.90;;;;;;5059054;28;20041;-75
2023/04/28 00:54:37;;;;;;;20.52;18.63;;;7.00;99.90;;;;;;5037714;28;20036;-75
2023/04/28 00:57:03;;;;;;;22.08;19.95;;;7.10;99.90;;;;;;5036431;28;20044;-75
2023/04/28 00:59:35;;;;;;;20.48;18.52;;;7.10;99.90;;;;;;5025584;28;20037;-75
2023/04/28 01:02:05;;;;;;;21.80;19.80;;;7.10;99.90;;;;;;5039685;28;20099;-75
2023/04/28 01:04:31;;;;;;;22.80;20.55;;;7.00;99.90;;;;;;5044580;28;20032;-75
2023/04/28 01:06:59;;;;;;;22.05;20.00;;;7.00;99.90;;;;;;5068252;28;20040;-75
2023/04/28 01:09:24;;;;;;;23.05;20.90;;;7.00;99.90;;;;;;5052054;28;20036;-75
2023/04/28 01:11:50;;;;;;;23.33;21.02;;;7.00;99.90;;;;;;5056905;28;20118;-75
2023/04/28 01:14:16;;;;;;;23.15;20.85;;;7.00;99.90;;;;;;5035026;28;20041;-75
2023/04/28 01:16:42;;;;;;;22.75;20.67;;;7.10;99.90;;;;;;5035204;28;20123;-75
2023/04/28 01:19:15;;;;;;;22.42;20.33;;;6.90;99.90;;;;;;5052620;28;20469;-75
2023/04/28 01:21:41;;;;;;;21.98;20.00;;;7.00;99.90;;;;;;5039206;28;20047;-75
2023/04/28 01:24:06;;;;;;;21.30;19.20;;;6.90;99.90;;;;;;5035451;28;20481;-75
2023/04/28 01:26:32;;;;;;;20.48;18.63;;;6.90;99.90;;;;;;5035708;28;20625;-75
2023/04/28 01:28:58;;;;;;;20.80;18.70;;;6.90;99.90;;;;;;5046088;28;20068;-75
2023/04/28 01:31:24;;;;;;;20.10;18.35;;;6.90;99.90;;;;;;5034548;28;21276;-75
2023/04/28 01:33:50;;;;;;;19.52;17.77;;;6.90;99.90;;;;;;5036474;28;20045;-75
2023/04/28 01:36:16;;;;;;;20.80;18.83;;;6.90;99.90;;;;;;5032607;28;20153;-75
2023/04/28 01:38:41;;;;;;;20.65;18.75;;;6.80;99.90;;;;;;5045059;28;20033;-75
2023/04/28 01:41:07;;;;;;;20.42;18.48;;;6.80;99.90;;;;;;5031706;28;20073;-76
2023/04/28 01:43:33;;;;;;;20.35;18.48;;;6.80;99.90;;;;;;5050965;28;20041;-76
2023/04/28 01:45:58;;;;;;;19.67;17.85;;;6.80;99.90;;;;;;5034835;28;20112;-76
2023/04/28 01:48:24;;;;;;;19.67;17.77;;;6.80;99.90;;;;;;5058598;28;20095;-76
2023/04/28 01:50:52;;;;;;;20.23;18.33;;;6.80;99.90;;;;;;5053857;28;20036;-76
2023/04/28 01:53:19;;;;;;;19.90;17.90;;;6.70;99.90;;;;;;5026853;28;20045;-75
2023/04/28 01:55:46;;;;;;;19.55;17.75;;;6.70;99.90;;;;;;5035532;28;20048;-75
2023/04/28 01:58:12;;;;;;;19.33;17.55;;;6.70;99.90;;;;;;5048689;28;20163;-76
2023/04/28 02:00:37;;;;;;;19.42;17.52;;;6.70;99.90;;;;;;5054443;28;20127;-75
2023/04/28 02:03:03;;;;;;;18.83;17.02;;;6.70;99.90;;;;;;5026899;28;20046;-75
2023/04/28 02:05:29;;;;;;;18.88;17.08;;;6.70;99.90;;;;;;5041472;28;20043;-76
2023/04/28 02:07:54;;;;;;;18.85;17.05;;;6.70;99.90;;;;;;5047729;28;20033;-76
2023/04/28 02:10:20;;;;;;;19.02;17.23;;;6.70;99.90;;;;;;5050592;28;20129;-75
2023/04/28 02:12:46;;;;;;;18.40;16.60;;;6.70;99.90;;;;;;5045468;28;20033;-75
2023/04/28 02:15:11;;;;;;;19.13;17.23;;;6.70;99.90;;;;;;5020736;28;20520;-75
2023/04/28 02:17:37;;;;;;;18.50;16.73;;;6.70;99.90;;;;;;5029582;28;20042;-76
2023/04/28 02:20:03;;;;;;;19.60;17.77;;;6.70;99.90;;;;;;5048163;28;20037;-76
2023/04/28 02:22:29;;;;;;;19.75;17.77;;;6.70;99.90;;;;;;5026196;28;20519;-75
2023/04/28 02:24:56;;;;;;;19.40;17.38;;;6.70;99.90;;;;;;5034260;28;20048;-75
2023/04/28 02:27:21;;;;;;;18.15;16.35;;;6.70;99.90;;;;;;5033084;28;20049;-75
2023/04/28 02:29:47;;;;;;;19.13;17.23;;;6.60;99.90;;;;;;5031172;28;20045;-75
2023/04/28 02:32:13;;;;;;;19.17;17.27;;;6.70;99.90;;;;;;5042502;28;20037;-76
2023/04/28 02:34:38;;;;;;;18.85;17.15;;;6.70;99.90;;;;;;5034489;28;20044;-76
2023/04/28 02:37:04;;;;;;;19.85;17.95;;;6.70;99.90;;;;;;5051693;28;20029;-75
2023/04/28 02:39:31;;;;;;;19.17;17.38;;;6.70;99.90;;;;;;5031540;28;20046;-76
2023/04/28 02:41:57;;;;;;;18.70;17.10;;;6.60;99.90;;;;;;5033868;28;20037;-75
2023/04/28 02:44:23;;;;;;;18.73;16.92;;;6.70;99.90;;;;;;5048773;28;20106;-75
2023/04/28 02:46:49;;;;;;;19.73;17.83;;;6.70;99.90;;;;;;5049486;28;20032;-75
2023/04/28 02:49:15;;;;;;;18.77;17.00;;;6.70;99.90;;;;;;5034247;28;20491;-75
2023/04/28 02:51:43;;;;;;;19.95;18.00;;;6.70;99.90;;;;;;5052778;28;20075;-75
2023/04/28 02:54:08;;;;;;;19.63;17.60;;;6.70;99.90;;;;;;5033765;28;20087;-75
2023/04/28 02:56:34;;;;;;;18.98;17.30;;;6.70;99.90;;;;;;5030308;28;20480;-75
2023/04/28 02:59:00;;;;;;;19.05;17.25;;;6.70;99.90;;;;;;5035007;28;20107;-75
2023/04/28 03:01:26;;;;;;;18.90;17.13;;;6.70;99.90;;;;;;5019281;28;20048;-75
2023/04/28 03:03:51;;;;;;;19.75;18.02;;;6.70;99.90;;;;;;5033459;28;20406;-75
2023/04/28 03:06:17;;;;;;;18.88;17.08;;;6.80;99.90;;;;;;5051061;28;20106;-75
2023/04/28 03:08:42;;;;;;;18.77;17.00;;;6.80;99.90;;;;;;5022623;28;20040;-76
2023/04/28 03:11:08;;;;;;;19.08;17.27;;;6.80;99.90;;;;;;5036662;28;20041;-75
2023/04/28 03:13:35;;;;;;;19.63;17.75;;;6.70;99.90;;;;;;5050446;28;20037;-75
2023/04/28 03:16:00;;;;;;;19.58;17.67;;;6.80;99.90;;;;;;5056235;28;20041;-75
2023/04/28 03:18:26;;;;;;;18.13;16.42;;;6.80;99.90;;;;;;5030785;28;20400;-75
2023/04/28 03:20:52;;;;;;;19.85;18.08;;;6.80;99.90;;;;;;5022573;28;20037;-75
2023/04/28 03:23:17;;;;;;;19.85;17.88;;;6.80;99.90;;;;;;5036434;28;20140;-75
2023/04/28 03:25:43;;;;;;;19.95;17.92;;;6.70;99.90;;;;;;5036851;28;20060;-75
2023/04/28 03:28:09;;;;;;;19.85;18.02;;;6.80;99.90;;;;;;5053933;28;20485;-75
2023/04/28 03:30:35;;;;;;;20.17;18.27;;;6.70;99.90;;;;;;5040853;28;20041;-75
2023/04/28 03:33:00;;;;;;;20.15;18.25;;;6.70;99.90;;;;;;5025725;28;20150;-75
2023/04/28 03:35:26;;;;;;;19.92;17.90;;;6.70;99.90;;;;;;5022516;28;20114;-75
2023/04/28 03:37:52;;;;;;;19.80;18.00;;;6.70;99.90;;;;;;5032287;28;20035;-75
2023/04/28 03:40:18;;;;;;;19.25;17.48;;;6.70;99.90;;;;;;5047573;28;20079;-75
2023/04/28 03:42:43;;;;;;;20.40;18.33;;;6.70;99.90;;;;;;5033714;28;20481;-75
2023/04/28 03:45:09;;;;;;;20.85;18.88;;;6.70;99.90;;;;;;5033562;28;20072;-75
2023/04/28 03:47:35;;;;;;;19.65;17.75;;;6.70;99.90;;;;;;5065714;28;20029;-75
2023/04/28 03:50:01;;;;;;;20.77;18.88;;;6.70;99.90;;;;;;5050075;28;21326;-75
2023/04/28 03:52:27;;;;;;;21.48;19.33;;;6.70;99.90;;;;;;5028026;28;20029;-75
2023/04/28 03:54:52;;;;;;;20.88;19.08;;;6.70;99.90;;;;;;5033697;28;20083;-76
2023/04/28 03:57:18;;;;;;;21.48;19.42;;;6.50;99.90;;;;;;5039520;28;20064;-76
2023/04/28 03:59:43;;;;;;;21.02;19.08;;;6.50;99.90;;;;;;5028026;28;20488;-75
2023/04/28 04:02:09;;;;;;;21.85;19.77;;;6.50;99.90;;;;;;5046714;28;20120;-75
2023/04/28 04:04:35;;;;;;;20.60;18.70;;;6.60;99.90;;;;;;5054303;28;20048;-75
2023/04/28 04:07:01;;;;;;;20.58;18.58;;;6.50;99.90;;;;;;5060063;28;20078;-75
2023/04/28 04:09:27;;;;;;;21.65;19.55;;;6.50;99.90;;;;;;5025676;28;20052;-75
2023/04/28 04:11:52;;;;;;;21.80;19.77;;;6.50;99.90;;;;;;5034220;28;20038;-75
2023/04/28 04:14:18;;;;;;;20.50;18.70;;;6.50;99.90;;;;;;5042425;28;20073;-76
2023/04/28 04:16:46;;;;;;;21.33;19.27;;;6.50;99.90;;;;;;5054830;28;20033;-75
2023/04/28 04:19:11;;;;;;;20.13;18.25;;;6.50;99.90;;;;;;5053636;28;20052;-75
2023/04/28 04:21:37;;;;;;;20.92;18.85;;;6.60;99.90;;;;;;5053565;28;20033;-75
2023/04/28 04:24:02;;;;;;;21.13;19.13;;;6.60;99.90;;;;;;5059583;28;20546;-75
2023/04/28 04:26:28;;;;;;;21.52;19.38;;;6.60;99.90;;;;;;5052698;28;20033;-76
2023/04/28 04:28:53;;;;;;;20.42;18.42;;;6.60;99.90;;;;;;5052931;28;20037;-75
2023/04/28 04:31:21;;;;;;;21.08;19.08;;;6.70;99.90;;;;;;5043035;28;20053;-75
2023/04/28 04:33:47;;;;;;;20.67;18.77;;;6.70;99.90;;;;;;5042480;28;20560;-75
2023/04/28 04:36:12;;;;;;;19.98;18.08;;;6.70;99.90;;;;;;5037777;28;20033;-75
2023/04/28 04:38:38;;;;;;;21.40;19.33;;;6.70;99.90;;;;;;5016853;28;20045;-75
2023/04/28 04:41:04;;;;;;;21.02;19.02;;;6.70;99.90;;;;;;5031522;28;20037;-75
2023/04/28 04:43:29;;;;;;;20.92;19.05;;;6.70;99.90;;;;;;5026443;28;20410;-75
2023/04/28 04:45:55;;;;;;;21.10;19.10;;;6.70;99.90;;;;;;5036823;28;20052;-75
2023/04/28 04:48:21;;;;;;;19.90;18.08;;;6.70;99.90;;;;;;5052036;28;20041;-75
2023/04/28 04:50:47;;;;;;;20.35;18.55;;;6.70;99.90;;;;;;5052946;28;20516;-75
2023/04/28 04:53:12;;;;;;;21.10;19.15;;;6.80;99.90;;;;;;5052769;28;20075;-76
2023/04/28 04:55:38;;;;;;;20.23;18.15;;;6.80;99.90;;;;;;5048205;28;20033;-75
2023/04/28 04:58:04;;;;;;;21.40;19.23;;;6.80;99.90;;;;;;5053521;28;20460;-75
2023/04/28 05:00:29;;;;;;;20.13;18.23;;;6.80;99.90;;;;;;5024796;28;20084;-76
2023/04/28 05:02:55;;;;;;;19.73;17.92;;;6.80;99.90;;;;;;5023331;28;20493;-76
2023/04/28 05:05:20;;;;;;;20.05;17.95;;;6.80;99.90;;;;;;5054052;28;20033;-76
2023/04/28 05:07:46;;;;;;;20.70;18.77;;;6.80;99.90;;;;;;5022315;28;20068;-76
2023/04/28 05:10:12;;;;;;;20.53;18.73;;;6.80;99.90;;;;;;5032915;28;20056;-75
2023/04/28 05:12:38;;;;;;;18.83;17.13;;;6.80;99.90;;;;;;5047052;28;20033;-75
2023/04/28 05:15:05;;;;;;;20.42;18.52;;;6.80;99.90;;;;;;5037566;28;20379;-76
2023/04/28 05:17:31;;;;;;;20.63;18.73;;;6.90;99.90;;;;;;5021894;28;20033;-75
2023/04/28 05:19:57;;;;;;;20.02;18.10;;;6.90;99.90;;;;;;5035922;28;20039;-75
2023/04/28 05:22:22;;;;;;;20.98;19.08;;;6.80;99.90;;;;;;5052260;28;20045;-76
2023/04/28 05:24:48;;;;;;;20.63;18.50;;;6.90;99.90;;;;;;5035757;28;20115;-75
2023/04/28 05:27:14;;;;;;;19.75;17.95;;;6.90;99.90;;;;;;5051769;28;20056;-75
2023/04/28 05:29:40;;;;;;;19.50;17.80;;;6.90;99.90;;;;;;5039362;28;20120;-75
2023/04/28 05:32:06;;;;;;;20.15;18.05;;;7.00;99.90;;;;;;5034865;28;20539;-75
2023/04/28 05:34:31;;;;;;;18.88;16.98;;;7.00;99.90;;;;;;5040053;28;20041;-76
2023/04/28 05:36:57;;;;;;;19.58;17.63;;;7.00;99.90;;;;;;5049020;28;20041;-76
2023/04/28 05:39:22;;;;;;;18.98;17.17;;;7.10;99.90;;;;;;5022455;28;20295;-76
2023/04/28 05:41:48;;;;;;;19.17;17.48;;;7.10;99.90;;;;;;5059412;22;20075;-73
2023/04/28 05:44:13;;;;;;;18.48;16.77;;;7.10;99.90;;;;;;5013949;28;20493;-73
2023/04/28 05:46:39;;;;;;;19.80;17.90;;;7.10;99.90;;;;;;5048060;28;20607;-73
2023/04/28 05:49:05;;;;;;;19.55;17.58;;;7.10;99.90;;;;;;5048902;28;20052;-73
2023/04/28 05:51:30;;;;;;;19.55;17.60;;;7.10;99.90;;;;;;5030516;28;20512;-73
2023/04/28 05:53:56;;;;;;;19.20;17.30;;;7.10;99.90;;;;;;5032037;28;20172;-72
2023/04/28 05:56:21;;;;;;;19.15;17.15;;;7.20;99.90;;;;;;5014801;28;20550;-75
2023/04/28 05:58:49;;;;;;;18.90;17.25;;;7.20;99.90;;;;;;5023328;28;20037;-77
2023/04/28 06:01:15;;;;;;;18.10;16.45;;;7.30;99.90;;;;;;5030808;28;20119;-74
2023/04/28 06:03:41;;;;;;;19.15;17.15;;;7.30;99.90;;;;;;5028419;28;20091;-72
2023/04/28 06:06:09;;;;;;;18.92;16.90;;;7.30;99.90;;;;;;5037734;28;20485;-73
2023/04/28 06:08:35;;;;;;;18.00;16.30;;;7.30;99.90;;;;;;5030677;28;20170;-73
2023/04/28 06:11:00;;;;;;;18.38;16.60;;;7.40;99.90;;;;;;5029266;28;20034;-73
2023/04/28 06:13:26;;;;;;;17.77;16.23;;;7.40;99.90;;;;;;5033430;28;20063;-73
2023/04/28 06:15:52;;;;;;;17.98;16.25;;;7.40;99.90;;;;;;5030289;28;20041;-74
2023/04/28 06:18:17;;;;;;;17.52;15.88;;;7.40;99.90;;;;;;5035997;28;20036;-74
2023/04/28 06:20:43;;;;;;;17.60;16.10;;;7.40;99.90;;;;;;5029255;28;20685;-74
2023/04/28 06:23:09;;;;;;;17.58;15.98;;;7.40;99.90;;;;;;5029897;28;20125;-73
2023/04/28 06:25:35;;;;;;;17.50;15.65;;;7.40;99.90;;;;;;5030916;28;20124;-73
2023/04/28 06:28:01;;;;;;;16.65;15.00;;;7.40;99.90;;;;;;5041312;28;20034;-73
2023/04/28 06:30:27;;;;;;;16.70;15.27;;;7.50;99.90;;;;;;5030871;28;20049;-72
2023/04/28 06:32:52;;;;;;;17.20;15.52;;;7.50;99.90;;;;;;5029140;28;20044;-73
2023/04/28 06:35:18;;;;;;;17.38;15.65;;;7.60;99.90;;;;;;5028548;28;20125;-74
2023/04/28 06:37:43;;;;;;;17.27;15.68;;;7.70;99.90;;;;;;5037510;28;20073;-74
2023/04/28 06:40:10;;;;;;;16.33;14.75;;;7.70;99.90;;;;;;5030739;28;20029;-73
2023/04/28 06:42:35;;;;;;;16.75;15.15;;;7.80;99.90;;;;;;5028420;28;20033;-73
2023/04/28 06:45:01;;;;;;;16.02;14.48;;;7.90;99.90;;;;;;5046608;28;20094;-73
2023/04/28 06:47:27;;;;;;;15.77;14.23;;;8.00;99.90;;;;;;5030036;28;20044;-73
2023/04/28 06:49:52;;;;;;;16.48;14.88;;;8.10;99.90;;;;;;5034757;28;20041;-73
2023/04/28 06:52:20;;;;;;;15.63;14.02;;;8.20;99.90;;;;;;5030852;28;20046;-72
2023/04/28 06:54:46;;;;;;;15.55;14.05;;;8.30;99.90;;;;;;5030890;28;20049;-73
2023/04/28 06:57:12;;;;;;;17.25;15.55;;;8.40;99.90;;;;;;5030170;28;20037;-73
2023/04/28 06:59:38;;;;;;;15.07;13.68;;;8.30;99.90;;;;;;5014358;28;20116;-73
2023/04/28 07:02:04;;;;;;;17.35;15.43;;;8.30;99.90;;;;;;5030673;28;20088;-73
2023/04/28 07:04:29;;;;;;;15.80;14.15;;;8.40;99.90;;;;;;5030507;28;20076;-73
2023/04/28 07:06:55;;;;;;;14.48;13.10;;;8.30;99.90;;;;;;5030761;28;20079;-73
2023/04/28 07:09:20;;;;;;;14.82;13.52;;;8.40;99.90;;;;;;5030943;28;20049;-73
2023/04/28 07:11:46;;;;;;;16.10;14.30;;;8.50;99.90;;;;;;5029602;28;20041;-73
2023/04/28 07:14:11;;;;;;;14.50;13.07;;;8.50;99.90;;;;;;5028671;28;20041;-73
2023/04/28 07:16:37;;;;;;;15.55;14.13;;;8.50;99.90;;;;;;5026820;28;20671;-73
2023/04/28 07:19:02;;;;;;;15.63;14.02;;;8.60;99.90;;;;;;5030225;28;20041;-73
2023/04/28 07:21:28;;;;;;;15.23;13.70;;;8.70;99.90;;;;;;5025994;28;20045;-73
2023/04/28 07:23:56;;;;;;;15.90;14.40;;;8.80;99.90;;;;;;5032295;28;20037;-74
2023/04/28 07:26:25;;;;;;;16.10;13.88;;;8.90;99.90;;;;;;5029752;28;20068;-73
2023/04/28 07:28:50;;;;;;;15.02;13.57;;;9.00;99.90;;;;;;5010025;28;20044;-73
2023/04/28 07:31:16;;;;;;;15.40;14.00;;;9.10;99.90;;;;;;5029260;28;20053;-73
2023/04/28 07:33:42;;;;;;;14.63;13.20;;;9.20;99.90;;;;;;5039353;28;20103;-73
2023/04/28 07:36:07;;;;;;;14.75;13.30;;;9.30;99.90;;;;;;5041023;28;20554;-73
2023/04/28 07:38:34;;;;;;;15.32;13.82;;;9.40;99.90;;;;;;5046874;28;20044;-74
2023/04/28 07:41:00;;;;;;;14.20;12.80;;;9.40;99.90;;;;;;5036951;28;20033;-74
2023/04/28 07:43:25;;;;;;;14.73;13.30;;;9.50;99.90;;;;;;5034174;28;20496;-75
2023/04/28 07:45:51;;;;;;;15.40;13.75;;;9.60;99.90;;;;;;5034339;28;20041;-74
2023/04/28 07:48:17;;;;;;;15.95;14.57;;;9.60;99.90;;;;;;5047987;28;20045;-73
2023/04/28 07:50:42;;;;;;;15.63;14.10;;;9.60;99.90;;;;;;5035532;28;20431;-73
2023/04/28 07:53:08;;;;;;;15.40;13.80;;;9.70;99.90;;;;;;5034149;28;20120;-73
2023/04/28 07:55:34;;;;;;;17.45;14.45;;;9.70;99.90;;;;;;5034047;28;20045;-73
2023/04/28 07:57:59;;;;;;;15.00;13.50;;;9.90;99.90;;;;;;5034081;28;20041;-74
2023/04/28 08:00:25;;;;;;;14.10;12.80;;;10.00;99.90;;;;;;5033973;28;20083;-73
2023/04/28 08:02:50;;;;;;;14.82;13.38;;;10.10;99.90;;;;;;5033743;28;20077;-74
2023/04/28 08:05:16;;;;;;;15.02;13.52;;;10.30;99.90;;;;;;5037633;28;20053;-74
2023/04/28 08:07:42;;;;;;;14.43;12.93;;;10.40;99.90;;;;;;5033352;28;20067;-74
2023/04/28 08:10:10;;;;;;;16.25;13.15;;;10.60;99.90;;;;;;5031026;28;20069;-73
2023/04/28 08:12:36;;;;;;;15.30;12.65;;;10.80;99.90;;;;;;5032877;28;20041;-73
2023/04/28 08:15:02;;;;;;;16.98;13.85;;;11.00;99.90;;;;;;5030331;28;20505;-73
2023/04/28 08:17:28;;;;;;;15.82;12.95;;;11.10;99.90;;;;;;5031904;28;20042;-73
2023/04/28 08:19:53;;;;;;;14.13;12.73;;;11.10;99.90;;;;;;5033583;28;20128;-73
2023/04/28 08:22:19;;;;;;;14.15;12.68;;;11.00;99.90;;;;;;5031453;28;20208;-73
2023/04/28 08:24:45;;;;;;;14.10;12.77;;;11.10;99.90;;;;;;5031825;28;20080;-73
2023/04/28 08:27:11;;;;;;;13.90;12.55;;;11.20;99.90;;;;;;5032095;28;20045;-73
2023/04/28 08:29:39;;;;;;;15.27;13.73;;;11.40;99.90;;;;;;5033486;28;20401;-73
2023/04/28 08:32:05;;;;;;;14.32;12.93;;;11.30;99.90;;;;;;5033339;28;20075;-73
2023/04/28 08:34:31;;;;;;;14.40;12.98;;;11.40;99.90;;;;;;5031524;28;20029;-73
2023/04/28 08:36:57;;;;;;;14.38;13.00;;;11.40;99.90;;;;;;5033346;28;20094;-73
2023/04/28 08:39:25;;;;;;;15.05;13.48;;;11.50;99.90;;;;;;5033649;28;20556;-73
2023/04/28 08:41:51;;;;;;;14.50;13.10;;;11.60;99.90;;;;;;5032075;28;20121;-73
2023/04/28 08:44:17;;;;;;;14.25;12.77;;;11.70;99.90;;;;;;5049265;28;20049;-73
2023/04/28 08:46:44;;;;;;;14.45;13.15;;;11.80;99.90;;;;;;5033140;28;20050;-73
2023/04/28 08:49:26;;;;;;;13.75;12.45;;;12.00;99.90;;;;;;5033220;28;20045;-73
2023/04/28 08:51:58;;;;;;;14.45;12.70;;;12.40;99.90;;;;;;5032208;28;20044;-73
2023/04/28 08:54:29;;;;;;;12.80;11.55;;;12.70;99.90;;;;;;5031178;28;20064;-73
2023/04/28 08:56:56;;;;;;;14.05;12.65;;;13.10;99.90;;;;;;5032936;28;20095;-73
2023/04/28 08:59:22;;;;;;;14.50;13.20;;;13.40;99.90;;;;;;5033333;28;20033;-73
2023/04/28 09:01:49;;;;;;;13.05;11.75;;;13.40;99.90;;;;;;5032894;28;20037;-73
2023/04/28 09:04:16;;;;;;;14.30;12.95;;;13.40;99.90;;;;;;5032653;28;20076;-73
2023/04/28 09:06:42;;;;;;;14.52;13.05;;;13.20;99.90;;;;;;5025714;28;20069;-73
2023/04/28 09:09:25;;;;;;;13.45;12.10;;;13.10;99.90;;;;;;5032787;28;20524;-73
2023/04/28 09:11:58;;;;;;;13.50;12.10;;;13.10;99.90;;;;;;5032564;28;20065;-73
2023/04/28 09:14:26;;;;;;;14.13;12.82;;;13.00;99.90;;;;;;5032548;28;20045;-73
2023/04/28 09:16:52;;;;;;;14.80;12.88;;;12.90;99.90;;;;;;5032990;28;20041;-73
2023/04/28 09:19:18;;;;;;;14.40;12.98;;;12.90;99.90;;;;;;5032945;28;20485;-73
2023/04/28 09:21:53;;;;;;;15.60;14.10;;;12.90;99.90;;;;;;5030046;28;20072;-73
2023/04/28 09:24:28;;;;;;;13.80;12.55;;;12.90;99.90;;;;;;5031339;28;20045;-73
2023/04/28 09:26:53;;;;;;;14.25;12.82;;;13.20;99.90;;;;;;5032610;28;20131;-74
2023/04/28 09:29:19;;;;;;;13.48;12.18;;;13.40;99.90;;;;;;5031575;28;20505;-73
2023/04/28 09:31:44;;;;;;;13.15;11.85;;;13.60;99.90;;;;;;5050656;28;20052;-73
2023/04/28 09:34:11;;;;;;;13.02;11.75;;;13.80;99.90;;;;;;5045989;28;20056;-74
2023/04/28 09:36:36;;;;;;;13.50;12.27;;;14.00;99.90;;;;;;5034010;28;20041;-73
2023/04/28 09:39:03;;;;;;;14.07;12.68;;;14.10;99.90;;;;;;5031792;28;20044;-73
2023/04/28 09:41:42;;;;;;;13.50;12.25;;;14.30;99.90;;;;;;5031929;28;20083;-74
2023/04/28 09:44:20;;;;;;;12.90;11.45;;;14.80;99.90;;;;;;5032009;28;20103;-74
2023/04/28 09:46:46;;;;;;;12.57;11.35;;;15.40;99.90;;;;;;5031338;28;20080;-73
2023/04/28 09:49:13;;;;;;;13.88;12.05;;;15.60;99.90;;;;;;5014709;28;20037;-73
2023/04/28 09:51:39;;;;;;;15.75;14.20;;;15.70;99.90;;;;;;5031889;28;20034;-73
2023/04/28 09:54:05;;;;;;;12.82;11.55;;;16.20;99.90;;;;;;5031816;28;20072;-73
2023/04/28 09:56:33;;;;;;;11.73;10.52;;;16.80;99.90;;;;;;5014858;28;20079;-73
2023/04/28 09:59:01;;;;;;;11.85;10.75;;;17.10;99.90;;;;;;5032232;28;20483;-73
2023/04/28 10:01:30;;;;;;;12.05;10.75;;;17.20;99.90;;;;;;5030516;28;20030;-74
2023/04/28 10:03:56;;;;;;;12.95;11.25;;;17.50;99.90;;;;;;5040595;28;20390;-74
2023/04/28 10:06:23;;;;;;;12.02;10.82;;;17.60;99.90;;;;;;5030982;28;20119;-74
2023/04/28 10:08:50;;;;;;;12.10;10.90;;;17.70;99.90;;;;;;5031720;28;20045;-74
2023/04/28 10:11:16;;;;;;;11.50;10.25;;;17.90;99.90;;;;;;5031609;28;20056;-74
2023/04/28 10:13:43;;;;;;;12.35;11.15;;;17.90;99.90;;;;;;5031490;28;20429;-73
2023/04/28 10:16:10;;;;;;;12.90;11.60;;;17.60;99.90;;;;;;5030614;28;20056;-74
2023/04/28 10:18:36;;;;;;;10.65;9.75;;;17.10;99.90;;;;;;5031384;28;20041;-73
2023/04/28 10:21:03;;;;;;;11.30;10.20;;;16.80;99.90;;;;;;5030553;28;20136;-74
2023/04/28 10:23:46;;;;;;;11.15;10.05;;;16.50;99.90;;;;;;5014876;28;20479;-73
2023/04/28 10:26:15;;;;;;;11.77;10.25;;;16.30;99.90;;;;;;5031434;28;20038;-74
2023/04/28 10:28:46;;;;;;;11.15;10.15;;;16.10;99.90;;;;;;5031326;28;20041;-73
2023/04/28 10:31:17;;;;;;;11.60;10.50;;;16.10;99.90;;;;;;5030077;28;20041;-73
2023/04/28 10:33:43;;;;;;;10.77;9.63;;;16.10;99.90;;;;;;5031099;28;20405;-73
2023/04/28 10:36:09;;;;;;;11.13;10.13;;;16.10;99.90;;;;;;5029067;28;20406;-73
2023/04/28 10:39:01;;;;;;;12.25;11.15;;;16.10;99.90;;;;;;5031467;28;20429;-74
2023/04/28 10:41:33;;;;;;;11.77;10.77;;;16.30;99.90;;;;;;5015785;28;20048;-75
2023/04/28 10:43:58;;;;;;;10.75;9.82;;;16.60;99.90;;;;;;5034990;28;20041;-74
2023/04/28 10:46:24;;;;;;;11.13;10.23;;;16.70;99.90;;;;;;5030479;28;20051;-75
2023/04/28 10:48:49;;;;;;;11.95;10.75;;;16.70;99.90;;;;;;5019870;28;20120;-74
2023/04/28 10:51:15;;;;;;;12.10;10.90;;;16.60;99.90;;;;;;5031180;28;20033;-75
2023/04/28 10:53:44;;;;;;;11.65;10.65;;;16.50;99.90;;;;;;5036374;28;20037;-76
2023/04/28 10:56:24;;;;;;;12.40;10.70;;;16.50;99.90;;;;;;5023185;28;20044;-74
2023/04/28 10:58:59;;;;;;;12.40;11.25;;;16.40;99.90;;;;;;5030068;28;20041;-75
2023/04/28 11:01:31;;;;;;;12.40;11.23;;;16.30;99.90;;;;;;5031062;28;20053;-75
2023/04/28 11:04:12;;;;;;;12.95;11.65;;;16.20;99.90;;;;;;5034929;28;20034;-75
2023/04/28 11:06:42;;;;;;;12.80;11.35;;;16.20;99.90;;;;;;5020408;28;20045;-74
2023/04/28 11:09:13;;;;;;;14.38;13.07;;;16.20;99.90;;;;;;5029063;28;20042;-74
2023/04/28 11:12:02;;;;;;;14.57;13.15;;;16.20;99.90;;;;;;5029570;28;20048;-74
2023/04/28 11:14:28;;;;;;;16.10;14.40;;;16.00;99.90;;;;;;5029681;28;20070;-75
2023/04/28 11:16:58;;;;;;;18.17;15.13;;;15.90;99.90;;;;;;5035820;28;20045;-74
2023/04/28 11:19:32;;;;;;;15.52;13.27;;;15.60;99.90;;;;;;5031446;28;20072;-75
2023/04/28 11:22:00;;;;;;;15.90;14.25;;;15.40;99.90;;;;;;5017237;28;20045;-75
2023/04/28 11:24:30;;;;;;;17.00;15.43;;;15.20;99.90;;;;;;5042195;28;20045;-75
2023/04/28 11:26:59;;;;;;;18.02;16.33;;;15.00;99.90;;;;;;5028838;28;20041;-75
2023/04/28 11:29:34;;;;;;;16.77;14.98;;;14.90;99.90;;;;;;5030480;28;20054;-75
2023/04/28 11:32:02;;;;;;;17.35;15.65;;;14.80;99.90;;;;;;5029821;28;20041;-75
2023/04/28 11:34:27;;;;;;;18.42;16.73;;;14.80;99.90;;;;;;5036026;28;20076;-75
2023/04/28 11:36:53;;;;;;;20.92;18.73;;;14.70;99.90;;;;;;5033946;28;20107;-76
2023/04/28 11:39:30;;;;;;;23.20;21.10;;;14.70;99.90;;;;;;5014700;28;20045;-76
2023/04/28 11:41:57;;;;;;;28.80;26.15;;;14.70;99.90;;;;;;5036031;23;20053;-76
2023/04/28 11:44:27;;;;;;;29.40;26.65;;;14.80;99.90;;;;;;5012097;28;20510;-75
2023/04/28 11:47:01;;;;;;;28.35;25.77;;;15.00;99.90;;;;;;4999582;28;20489;-75
2023/04/28 11:49:29;;;;;;;29.05;26.45;;;15.20;99.90;;;;;;5009911;28;20097;-75
2023/04/28 11:52:04;;;;;;;33.17;30.38;;;15.20;99.90;;;;;;4992144;28;20045;-75
2023/04/28 11:54:30;;;;;;;34.92;31.90;;;15.20;99.90;;;;;;5002260;28;20038;-76
2023/04/28 11:56:57;;;;;;;37.22;33.92;;;15.00;99.90;;;;;;4994054;28;20038;-76
2023/04/28 11:59:27;;;;;;;38.40;35.03;;;14.90;99.90;;;;;;4994319;28;20041;-76
2023/04/28 12:01:58;;;;;;;36.95;33.90;;;14.80;99.90;;;;;;4994200;28;20444;-76
2023/04/28 12:04:37;;;;;;;43.83;40.13;;;14.80;99.90;;;;;;5009183;28;20125;-75
2023/04/28 12:07:09;;;;;;;42.28;38.88;;;14.60;99.90;;;;;;4994358;28;20042;-75
2023/04/28 12:09:36;;;;;;;47.67;43.85;;;14.50;99.90;;;;;;5009645;28;20033;-75
2023/04/28 12:12:07;;;;;;;46.67;42.90;;;14.40;99.90;;;;;;4993895;28;20076;-74
2023/04/28 12:14:57;;;;;;;50.78;46.58;;;14.40;99.90;;;;;;5010049;28;20042;-75
2023/04/28 12:17:32;;;;;;;47.53;43.63;;;14.30;99.90;;;;;;5009302;28;20045;-75
2023/04/28 12:20:00;;;;;;;45.80;42.13;;;14.20;99.90;;;;;;4996506;28;20049;-74
2023/04/28 12:22:27;;;;;;;50.38;46.38;;;14.10;99.90;;;;;;5013130;28;20045;-74
2023/04/28 12:25:06;;;;;;;48.22;44.08;;;14.00;99.90;;;;;;4998225;28;20042;-75
2023/04/28 12:27:32;;;;;;;48.97;44.75;;;14.10;99.90;;;;;;4989903;28;20045;-74
2023/04/28 12:29:58;;;;;;;48.22;44.50;;;14.00;99.90;;;;;;4997341;28;20046;-74
2023/04/28 12:32:43;;;;;;;47.05;43.28;;;13.90;99.90;;;;;;4995871;28;20120;-75